Time;durP1;ratioP1;P1;durP2;ratioP2;P2;SDS_P1;SDS_P2;PMS_P1;PMS_P2;Temp;Humidity;BMP_temperature;BMP_pressure;BME280_temperature;BME280_humidity;BME280_pressure;Samples;Min_cycle;Max_cycle;Signal;HPM_P1;HPM_P2
2022/09/05 00:03:18;;;;;;;8.07;5.43;;;;;;;14.89;100.00;101097.44;5587427;31;34424;-68
2022/09/05 00:06:25;;;;;;;9.25;5.72;;;;;;;14.95;100.00;101102.09;5588087;31;34637;-68
2022/09/05 00:10:07;;;;;;;10.65;5.22;;;;;;;14.99;100.00;101108.72;5591097;31;35211;-68
2022/09/05 00:13:43;;;;;;;8.25;5.15;;;;;;;15.08;100.00;101105.81;5590824;31;34610;-68
2022/09/05 00:16:52;;;;;;;8.30;5.30;;;;;;;15.02;100.00;101106.53;5590745;31;33969;-68
2022/09/05 00:20:04;;;;;;;6.65;5.28;;;;;;;14.90;100.00;101102.63;5590700;31;34060;-68
2022/09/05 00:23:51;;;;;;;13.45;5.80;;;;;;;14.96;100.00;101111.78;5590577;31;34800;-68
2022/09/05 00:27:33;;;;;;;8.45;5.70;;;;;;;14.79;100.00;101111.03;5590631;31;34124;-69
2022/09/05 00:31:07;;;;;;;6.25;5.50;;;;;;;14.77;100.00;101110.38;5590595;31;34581;-69
2022/09/05 00:34:52;;;;;;;8.05;6.05;;;;;;;14.69;100.00;101105.09;5590802;31;33971;-69
2022/09/05 00:37:56;;;;;;;6.72;5.57;;;;;;;14.76;100.00;101104.19;5590606;31;34578;-69
2022/09/05 00:41:18;;;;;;;7.12;5.53;;;;;;;14.77;100.00;101099.69;5589947;31;34270;-69
2022/09/05 00:44:24;;;;;;;11.75;5.62;;;;;;;14.77;100.00;101097.84;5590576;31;33883;-69
2022/09/05 00:47:40;;;;;;;9.15;5.95;;;;;;;14.70;100.00;101101.41;5589692;31;33916;-69
2022/09/05 00:50:56;;;;;;;5.90;5.25;;;;;;;14.65;100.00;101101.13;5589708;31;34557;-69
2022/09/05 00:54:27;;;;;;;7.07;5.55;;;;;;;14.69;100.00;101097.91;5590416;31;33932;-70
2022/09/05 00:57:51;;;;;;;8.98;5.78;;;;;;;14.66;100.00;101106.28;5590235;31;34820;-69
2022/09/05 01:00:57;;;;;;;9.60;5.90;;;;;;;14.72;100.00;101110.06;5590709;31;34605;-70
2022/09/05 01:04:18;;;;;;;7.00;5.95;;;;;;;14.71;100.00;101109.28;5590325;31;34719;-69
2022/09/05 01:07:55;;;;;;;6.95;5.93;;;;;;;14.69;100.00;101107.75;5590368;31;33882;-69
2022/09/05 01:11:27;;;;;;;9.73;5.85;;;;;;;14.75;100.00;101105.22;5590255;31;34655;-69
2022/09/05 03:25:03;;;;;;;7.70;5.70;;;;;;;13.58;100.00;101114.19;5600182;31;34790;-70
2022/09/05 03:28:35;;;;;;;8.07;5.95;;;;;;;13.54;100.00;101112.88;5608672;31;33914;-70
2022/09/05 03:31:44;;;;;;;8.05;5.97;;;;;;;13.42;100.00;101117.69;5608551;31;35229;-70
2022/09/05 03:35:14;;;;;;;7.75;6.20;;;;;;;13.36;100.00;101123.72;5608337;31;34061;-70
2022/09/05 03:38:35;;;;;;;;;;;;;;;13.31;100.00;101126.88;5608774;31;33970;-70
2022/09/05 03:42:14;;;;;;;8.57;5.60;;;;;;;13.24;100.00;101125.88;5609526;31;34893;-70
2022/09/05 03:45:53;;;;;;;7.30;5.93;;;;;;;13.21;100.00;101130.72;5596871;31;32641;-70
2022/09/05 03:49:27;;;;;;;7.65;5.60;;;;;;;13.16;100.00;101131.22;5610722;31;33850;-70
2022/09/05 03:53:11;;;;;;;7.25;5.47;;;;;;;13.11;100.00;101140.66;5611065;31;34058;-68
2022/09/05 03:57:07;;;;;;;8.98;5.93;;;;;;;13.11;100.00;101143.34;5610702;31;34562;-68
2022/09/05 04:00:36;;;;;;;6.85;5.45;;;;;;;13.09;100.00;101143.50;5596157;31;33668;-69
2022/09/05 04:03:48;;;;;;;6.72;5.47;;;;;;;13.07;100.00;101148.97;5596968;31;34542;-69
2022/09/05 04:07:31;;;;;;;6.87;5.60;;;;;;;13.08;100.00;101147.16;5610752;31;34022;-69
2022/09/05 04:11:04;;;;;;;8.10;5.45;;;;;;;13.08;100.00;101155.13;5610601;31;33859;-69
2022/09/05 04:14:13;;;;;;;6.12;5.40;;;;;;;13.09;100.00;101156.81;5610576;31;34280;-69
2022/09/05 04:17:45;;;;;;;8.25;5.80;;;;;;;13.07;100.00;101164.97;5610844;31;34492;-69
2022/09/05 04:20:50;;;;;;;9.23;5.70;;;;;;;13.10;100.00;101163.81;5582274;31;32551;-69
2022/09/05 04:24:02;;;;;;;10.30;5.90;;;;;;;13.10;100.00;101170.97;5610579;31;34073;-69
2022/09/05 04:27:27;;;;;;;7.47;5.80;;;;;;;13.08;100.00;101176.44;5596585;31;33109;-69
2022/09/05 04:30:43;;;;;;;9.20;6.03;;;;;;;13.09;100.00;101178.12;5610333;31;34673;-69
2022/09/05 04:34:24;;;;;;;7.93;5.60;;;;;;;13.19;100.00;101180.66;5610167;31;34246;-69
2022/09/05 04:37:39;;;;;;;8.00;6.05;;;;;;;13.24;100.00;101184.50;5610320;31;34700;-69
2022/09/05 04:40:59;;;;;;;6.75;5.62;;;;;;;13.33;100.00;101185.34;5610764;31;34517;-69
2022/09/05 04:44:11;;;;;;;9.25;5.93;;;;;;;13.45;100.00;101181.34;5610403;31;34566;-69
2022/09/05 04:47:28;;;;;;;8.75;5.68;;;;;;;13.49;100.00;101191.50;5610177;31;34056;-69
2022/09/05 04:50:38;;;;;;;8.15;6.05;;;;;;;13.53;100.00;101194.66;5610151;31;34150;-66
2022/09/05 04:53:53;;;;;;;11.02;6.07;;;;;;;13.63;100.00;101200.66;5610116;31;34435;-69
2022/09/05 04:57:02;;;;;;;9.15;5.93;;;;;;;13.77;100.00;101199.16;5610039;31;34672;-68
2022/09/05 05:00:52;;;;;;;9.25;5.60;;;;;;;13.81;100.00;101197.81;5610087;31;34419;-69
2022/09/05 05:04:21;;;;;;;9.30;5.47;;;;;;;13.98;100.00;101209.28;5610202;31;33944;-70
2022/09/05 05:07:59;;;;;;;6.78;5.60;;;;;;;14.06;100.00;101204.78;5609873;31;34648;-69
2022/09/05 05:11:09;;;;;;;6.47;5.20;;;;;;;14.15;100.00;101205.56;5596001;31;32333;-69
2022/09/05 05:15:03;;;;;;;7.50;5.60;;;;;;;14.22;100.00;101211.91;5610355;31;33944;-69
2022/09/05 05:18:32;;;;;;;6.37;5.25;;;;;;;14.30;100.00;101215.38;5589218;31;32700;-69
2022/09/05 05:21:57;;;;;;;7.18;5.10;;;;;;;14.48;100.00;101225.84;5609764;31;35149;-69
2022/09/05 05:25:01;;;;;;;10.32;5.28;;;;;;;14.59;100.00;101216.63;5609473;31;34671;-70
2022/09/05 05:28:11;;;;;;;8.55;5.90;;;;;;;14.64;100.00;101216.94;5609503;31;33884;-70
2022/09/05 05:31:33;;;;;;;9.60;5.62;;;;;;;14.71;100.00;101223.28;5597273;31;34335;-70
2022/09/05 05:34:43;;;;;;;6.32;5.07;;;;;;;14.71;100.00;101217.94;5595448;31;32552;-70
2022/09/05 05:38:56;;;;;;;;;;;;;;;15.44;100.00;101222.84;5595935;31;283378;-70
2022/09/05 05:42:00;;;;;;;7.60;4.80;;;;;;;15.44;100.00;101222.84;5603334;31;33250;-69
2022/09/05 05:45:32;;;;;;;5.22;4.72;;;;;;;14.96;100.00;101227.47;5603997;31;34573;-70
2022/09/05 05:48:40;;;;;;;5.93;4.30;;;;;;;15.13;100.00;101222.88;5603742;31;33811;-70
2022/09/05 05:52:26;;;;;;;6.95;5.10;;;;;;;15.33;100.00;101226.75;5603936;31;33793;-70
2022/09/05 05:56:07;;;;;;;7.00;5.30;;;;;;;15.44;100.00;101228.97;5575339;31;32612;-70
2022/09/05 05:59:41;;;;;;;8.13;5.95;;;;;;;15.52;100.00;101220.13;5603829;31;34240;-70
2022/09/05 06:03:16;;;;;;;7.62;6.15;;;;;;;15.69;100.00;101229.66;5603519;31;34066;-69
2022/09/05 06:07:06;;;;;;;9.95;6.10;;;;;;;15.86;100.00;101233.87;5603844;31;34076;-71
2022/09/05 06:10:49;;;;;;;11.50;6.03;;;;;;;16.01;100.00;101234.72;5589953;31;33329;-70
2022/09/05 06:14:21;;;;;;;8.55;5.85;;;;;;;16.16;100.00;101233.91;5602987;31;34647;-70
2022/09/05 06:18:13;;;;;;;8.55;6.25;;;;;;;16.46;100.00;101232.88;5603404;31;33757;-70
2022/09/05 06:21:54;;;;;;;11.88;6.40;;;;;;;16.59;100.00;101238.47;5602768;31;34488;-70
2022/09/05 06:25:51;;;;;;;7.57;5.47;;;;;;;16.71;100.00;101236.13;5586758;31;33654;-70
2022/09/05 06:28:57;;;;;;;9.55;5.40;;;;;;;16.95;100.00;101233.13;5602544;31;32434;-70
2022/09/05 06:32:06;;;;;;;8.90;5.10;;;;;;;17.00;100.00;101236.09;5602201;31;34209;-69
2022/09/05 06:35:08;;;;;;;6.68;5.28;;;;;;;17.12;98.84;101231.91;5602698;31;33172;-69
2022/09/05 06:38:27;;;;;;;6.70;4.80;;;;;;;17.37;97.03;101238.56;5601945;31;34301;-71
2022/09/05 06:42:11;;;;;;;7.12;4.20;;;;;;;18.09;94.72;101233.03;5602798;31;33260;-71
2022/09/05 06:45:50;;;;;;;7.15;4.68;;;;;;;18.84;87.12;101242.97;5603007;31;34550;-71
2022/09/05 06:49:18;;;;;;;6.05;3.80;;;;;;;19.90;81.57;101235.94;5595038;31;33575;-71
2022/09/05 06:52:37;;;;;;;8.13;4.12;;;;;;;20.50;78.46;101240.22;5590286;31;34771;-71
2022/09/05 06:56:27;;;;;;;4.85;3.55;;;;;;;20.50;77.25;101245.62;5590404;31;33844;-70
2022/09/05 06:59:51;;;;;;;8.57;3.58;;;;;;;20.48;77.51;101239.59;5561626;31;33740;-70
2022/09/05 07:03:09;;;;;;;5.15;3.62;;;;;;;20.78;74.98;101235.34;5588960;31;33312;-70
2022/09/05 07:06:17;;;;;;;7.65;3.42;;;;;;;21.39;73.34;101247.53;5589911;31;33900;-69
2022/09/05 07:09:30;;;;;;;5.40;3.12;;;;;;;21.92;72.15;101243.37;5576695;31;32213;-70
2022/09/05 07:12:45;;;;;;;6.25;3.22;;;;;;;22.56;66.81;101250.25;5576518;31;32552;-70
2022/09/05 07:15:59;;;;;;;6.20;3.28;;;;;;;22.74;65.79;101253.00;5589577;31;32559;-70
2022/09/05 07:19:26;;;;;;;4.57;2.75;;;;;;;23.39;63.23;101253.16;5589505;31;33863;-70
2022/09/05 07:22:40;;;;;;;5.37;3.00;;;;;;;24.51;58.93;101249.41;5589981;31;33958;-70
2022/09/05 07:25:54;;;;;;;3.92;3.00;;;;;;;25.09;57.87;101245.72;5589767;31;35008;-70
2022/09/05 07:29:02;;;;;;;6.07;2.83;;;;;;;25.62;55.23;101258.94;5589173;31;34393;-70
2022/09/05 07:32:08;;;;;;;5.40;2.58;;;;;;;26.30;52.67;101261.44;5589983;31;33920;-70
2022/09/05 07:35:33;;;;;;;5.55;2.70;;;;;;;25.64;52.95;101259.53;5588688;31;34607;-70
2022/09/05 07:38:49;;;;;;;4.53;2.70;;;;;;;25.73;52.89;101251.81;5589367;31;34641;-70
2022/09/05 07:42:19;;;;;;;8.15;2.67;;;;;;;25.88;53.99;101250.16;5589206;31;34534;-70
2022/09/05 07:45:25;;;;;;;7.12;2.62;;;;;;;26.06;52.74;101246.34;5588898;31;33944;-70
2022/09/05 07:48:36;;;;;;;6.97;2.47;;;;;;;26.31;50.67;101251.38;5588914;31;34154;-70
2022/09/05 07:52:05;;;;;;;5.00;2.37;;;;;;;26.07;52.03;101245.28;5589038;31;34595;-70
2022/09/05 07:55:33;;;;;;;4.97;2.67;;;;;;;27.20;49.22;101249.25;5587241;31;32926;-70
2022/09/05 07:59:00;;;;;;;8.40;2.80;;;;;;;28.58;45.52;101252.81;5589046;31;32489;-70
2022/09/05 08:02:09;;;;;;;5.25;2.40;;;;;;;29.83;41.60;101253.41;5588527;31;34475;-70
2022/09/05 08:05:18;;;;;;;4.78;2.45;;;;;;;30.59;40.04;101251.41;5588748;31;32553;-70
2022/09/05 08:09:15;;;;;;;11.32;2.70;;;;;;;28.46;43.69;101235.84;5589610;31;34563;-70
2022/09/05 08:12:57;;;;;;;5.85;2.28;;;;;;;30.18;40.06;101238.88;5561497;31;33650;-70
2022/09/05 08:16:22;;;;;;;12.50;2.10;;;;;;;30.40;38.59;101244.88;5589197;31;34806;-70
2022/09/05 08:19:40;;;;;;;4.70;2.20;;;;;;;30.61;38.09;101251.09;5588570;31;33948;-70
2022/09/05 08:22:49;;;;;;;4.47;2.10;;;;;;;31.03;36.88;101242.44;5575200;31;33699;-70
2022/09/05 08:26:07;;;;;;;3.67;2.05;;;;;;;31.54;35.50;101240.16;5589239;31;34409;-70
2022/09/05 08:29:30;;;;;;;5.62;2.00;;;;;;;31.99;34.37;101241.72;5589144;31;33860;-70
2022/09/05 08:32:48;;;;;;;5.82;2.55;;;;;;;32.14;34.20;101233.37;5588887;31;34682;-70
2022/09/05 08:35:59;;;;;;;4.12;2.40;;;;;;;32.77;34.35;101242.22;5588387;31;33809;-70
2022/09/05 08:39:06;;;;;;;6.07;2.20;;;;;;;33.65;31.55;101229.66;5587588;31;34378;-70
2022/09/05 08:42:35;;;;;;;6.20;2.58;;;;;;;33.09;33.84;101237.97;5588580;31;34428;-70
2022/09/05 08:45:49;;;;;;;5.20;2.25;;;;;;;31.60;35.71;101227.25;5589178;31;33905;-71
2022/09/05 08:49:26;;;;;;;4.32;1.80;;;;;;;32.17;33.55;101234.69;5589253;31;34566;-70
2022/09/05 08:52:53;;;;;;;6.18;2.00;;;;;;;34.27;29.14;101227.50;5588546;31;32501;-70
2022/09/05 08:56:09;;;;;;;6.15;2.00;;;;;;;34.04;29.79;101232.84;5587920;31;33171;-71
2022/09/05 08:59:39;;;;;;;3.40;1.70;;;;;;;34.53;28.35;101225.84;5588403;31;33885;-72
2022/09/05 09:03:33;;;;;;;2.53;1.85;;;;;;;33.60;28.93;101222.31;5588393;31;33952;-71
2022/09/05 09:06:52;;;;;;;3.42;1.87;;;;;;;30.65;32.99;101214.66;5588765;31;34006;-71
2022/09/05 09:10:34;;;;;;;11.90;2.00;;;;;;;28.45;38.37;101210.44;5587963;31;33263;-71
2022/09/05 09:13:54;;;;;;;3.85;1.83;;;;;;;27.88;39.13;101209.53;5587251;31;32423;-71
2022/09/05 09:16:57;;;;;;;6.30;2.37;;;;;;;26.08;42.20;101199.87;5575405;31;32234;-70
2022/09/05 09:20:25;;;;;;;6.12;2.40;;;;;;;24.76;46.93;101194.84;5588962;31;34501;-69
2022/09/05 09:23:57;;;;;;;5.97;2.30;;;;;;;25.10;45.61;101195.78;5588033;31;32615;-69
2022/09/05 09:27:35;;;;;;;3.40;2.30;;;;;;;24.58;48.86;101192.31;5587921;31;33880;-69
2022/09/05 09:31:14;;;;;;;7.32;2.75;;;;;;;24.41;48.55;101184.09;5568838;31;32487;-69
2022/09/05 09:34:23;;;;;;;4.20;2.47;;;;;;;24.47;48.22;101183.13;5587547;31;32312;-69
2022/09/05 09:37:49;;;;;;;4.17;2.33;;;;;;;24.32;47.70;101190.94;5588121;31;33855;-71
2022/09/05 09:41:09;;;;;;;3.90;2.78;;;;;;;23.88;49.49;101184.22;5588519;31;33999;-70
2022/09/05 09:44:47;;;;;;;4.00;2.62;;;;;;;24.09;49.45;101172.81;5588536;31;34006;-70
2022/09/05 09:48:24;;;;;;;4.32;2.65;;;;;;;23.91;49.48;101178.38;5575377;31;33229;-70
2022/09/05 09:51:48;;;;;;;4.45;2.47;;;;;;;23.51;50.88;101185.50;5588821;31;34317;-68
2022/09/05 09:55:24;;;;;;;2.50;2.30;;;;;;;23.85;49.67;101178.47;5588396;31;33775;-68
2022/09/05 09:58:48;;;;;;;3.22;2.50;;;;;;;24.13;49.74;101181.28;5587115;31;33372;-70
2022/09/05 10:02:30;;;;;;;3.47;2.30;;;;;;;24.43;50.16;101175.72;5587565;31;33872;-72
2022/09/05 10:05:59;;;;;;;4.53;2.87;;;;;;;24.03;50.38;101170.22;5588022;31;34510;-72
2022/09/05 10:09:31;;;;;;;5.07;2.40;;;;;;;24.51;48.48;101168.03;5587134;31;33848;-68
2022/09/05 10:13:22;;;;;;;3.40;2.60;;;;;;;24.77;47.25;101171.25;5587625;31;34569;-70
2022/09/05 10:16:28;;;;;;;4.85;2.70;;;;;;;24.80;47.30;101173.47;5587392;31;33868;-70
2022/09/05 10:19:46;;;;;;;5.93;3.05;;;;;;;24.44;48.04;101174.66;5587825;31;34500;-68
2022/09/05 10:23:22;;;;;;;3.28;2.72;;;;;;;24.98;46.79;101165.19;5587627;31;33712;-69
2022/09/05 10:26:25;;;;;;;3.35;2.30;;;;;;;25.08;46.02;101162.63;5590421;31;33931;-69
2022/09/05 10:30:08;;;;;;;3.15;2.30;;;;;;;25.22;45.46;101155.00;5590299;31;33955;-69
2022/09/05 10:33:55;;;;;;;5.05;2.40;;;;;;;24.75;45.12;101160.62;5589834;31;33131;-69
2022/09/05 10:37:18;;;;;;;3.58;2.85;;;;;;;25.10;44.30;101158.59;5590140;31;34557;-70
2022/09/05 10:40:24;;;;;;;4.65;2.58;;;;;;;25.39;43.07;101156.66;5588944;31;32628;-70
2022/09/05 10:43:29;;;;;;;4.78;2.50;;;;;;;25.38;44.34;101148.75;5589413;31;34304;-70
2022/09/05 10:46:44;;;;;;;3.45;2.05;;;;;;;26.58;42.16;101140.69;5589576;31;32937;-70
2022/09/05 10:50:35;;;;;;;3.22;2.30;;;;;;;28.53;37.29;101149.88;5590044;31;34457;-71
2022/09/05 10:54:00;;;;;;;3.53;2.22;;;;;;;30.15;34.11;101141.75;5577500;31;34000;-71
2022/09/05 10:57:10;;;;;;;2.53;2.05;;;;;;;34.25;27.70;101147.09;5589545;31;33420;-72
2022/09/05 11:00:56;;;;;;;2.92;1.70;;;;;;;35.31;26.25;101142.75;5589684;31;32281;-71
2022/09/05 11:04:18;;;;;;;3.33;1.98;;;;;;;32.62;28.80;101135.28;5579026;31;34072;-71
2022/09/05 11:07:43;;;;;;;3.70;1.80;;;;;;;33.14;30.45;101123.22;5590349;31;34560;-70
2022/09/05 11:11:02;;;;;;;4.90;1.77;;;;;;;32.85;28.79;101121.75;5589327;31;33720;-72
2022/09/05 11:14:30;;;;;;;4.53;2.30;;;;;;;32.72;29.78;101115.09;5589087;31;33195;-71
2022/09/05 11:17:40;;;;;;;3.60;2.05;;;;;;;35.81;25.91;101119.66;5577716;31;32463;-72
2022/09/05 11:21:13;;;;;;;4.78;2.00;;;;;;;36.83;24.11;101124.63;5590107;31;34064;-71
2022/09/05 11:24:40;;;;;;;3.87;1.87;;;;;;;38.57;22.08;101118.19;5589984;31;34676;-72
2022/09/05 11:27:47;;;;;;;3.25;2.00;;;;;;;36.04;23.85;101123.97;5576108;31;32370;-72
2022/09/05 11:30:55;;;;;;;3.90;1.70;;;;;;;34.43;26.58;101116.66;5576167;31;32776;-71
2022/09/05 11:34:24;;;;;;;4.25;1.80;;;;;;;37.64;23.01;101121.09;5590207;31;34633;-72
2022/09/05 11:38:26;;;;;;;3.50;2.00;;;;;;;39.32;20.49;101111.47;5589924;31;34034;-71
2022/09/05 11:41:58;;;;;;;4.12;2.20;;;;;;;40.33;19.44;101115.25;5590276;31;34533;-71
2022/09/05 11:45:09;;;;;;;4.75;1.83;;;;;;;38.98;21.63;101109.84;5589903;31;33943;-72
2022/09/05 11:48:40;;;;;;;2.58;2.00;;;;;;;39.94;19.74;101108.44;5589631;31;34570;-72
2022/09/05 11:52:22;;;;;;;3.03;1.90;;;;;;;41.46;19.03;101111.37;5589842;31;34028;-73
2022/09/05 11:55:49;;;;;;;3.47;2.17;;;;;;;41.91;18.36;101105.38;5588870;31;34185;-71
2022/09/05 11:59:01;;;;;;;;;;;;;;;40.94;20.02;101095.63;5589478;31;32858;-73
2022/09/05 12:02:25;;;;;;;5.78;1.92;;;;;;;39.90;20.31;101090.84;5589856;31;34822;-71
2022/09/05 12:06:02;;;;;;;5.05;2.12;;;;;;;40.87;19.97;101091.81;5589774;31;34035;-71
2022/09/05 12:09:24;;;;;;;2.85;2.15;;;;;;;41.07;18.67;101090.81;5589008;31;33188;-71
2022/09/05 12:12:35;;;;;;;7.30;1.85;;;;;;;40.89;18.42;101095.88;5589650;31;33908;-71
2022/09/05 12:15:45;;;;;;;2.65;1.77;;;;;;;36.60;23.24;101087.16;5588978;31;32372;-70
2022/09/05 12:19:40;;;;;;;2.78;1.80;;;;;;;37.04;23.65;101068.63;5590036;31;34559;-73
2022/09/05 12:23:03;;;;;;;6.78;2.60;;;;;;;39.67;20.56;101077.72;5588760;31;33160;-70
2022/09/05 12:26:28;;;;;;;5.70;2.12;;;;;;;38.56;20.62;101072.19;5588927;31;32291;-72
2022/09/05 12:29:56;;;;;;;5.62;2.50;;;;;;;40.60;19.41;101062.81;5588913;31;33191;-72
2022/09/05 12:33:14;;;;;;;2.60;2.12;;;;;;;42.51;17.66;101067.69;5589616;31;34650;-72
2022/09/05 12:36:48;;;;;;;5.22;2.10;;;;;;;40.91;18.69;101064.91;5575622;31;33302;-72
2022/09/05 12:40:16;;;;;;;2.62;1.92;;;;;;;36.25;23.14;101057.91;5589392;31;33915;-71
2022/09/05 12:43:47;;;;;;;;;;;;;;;37.87;21.35;101058.75;5589883;31;33882;-71
2022/09/05 12:47:15;;;;;;;3.55;2.10;;;;;;;38.88;20.71;101062.28;5588905;31;34745;-72
2022/09/05 12:50:42;;;;;;;4.12;1.90;;;;;;;39.39;20.13;101050.66;5575897;31;33834;-71
2022/09/05 12:53:57;;;;;;;4.62;1.98;;;;;;;36.10;23.18;101045.34;5588677;31;33283;-71
2022/09/05 12:57:04;;;;;;;5.18;2.22;;;;;;;33.61;27.07;101039.59;5588538;31;33039;-70
2022/09/05 13:00:39;;;;;;;3.75;2.00;;;;;;;34.44;25.57;101037.56;5577396;31;32705;-71
2022/09/05 13:04:17;;;;;;;5.07;2.15;;;;;;;37.42;21.95;101039.09;5589111;31;35036;-70
2022/09/05 13:07:42;;;;;;;3.47;2.10;;;;;;;40.95;18.39;101030.44;5588394;31;32324;-71
2022/09/05 13:10:51;;;;;;;8.68;2.65;;;;;;;42.43;17.21;101026.87;5589422;31;35026;-72
2022/09/05 13:14:24;;;;;;;7.35;2.00;;;;;;;43.21;16.61;101031.19;5588208;31;33817;-71
2022/09/05 13:18:07;;;;;;;5.72;2.40;;;;;;;43.41;15.96;101029.13;5588511;31;34252;-71
2022/09/05 13:21:17;;;;;;;4.97;2.00;;;;;;;41.75;17.63;101024.53;5588215;31;33854;-71
2022/09/05 13:24:31;;;;;;;2.90;2.00;;;;;;;41.97;17.85;101017.50;5588107;31;34105;-71
2022/09/05 13:27:40;;;;;;;4.57;2.22;;;;;;;44.28;15.68;101022.50;5588009;31;34246;-71
2022/09/05 13:30:59;;;;;;;4.62;2.10;;;;;;;40.63;18.53;101014.81;5588517;31;33855;-71
2022/09/05 13:34:27;;;;;;;3.50;2.17;;;;;;;39.90;19.96;101010.25;5588582;31;33847;-73
2022/09/05 13:38:09;;;;;;;;;;;;;;;40.10;18.94;101018.78;5588189;31;34634;-71
2022/09/05 13:41:36;;;;;;;5.35;2.30;;;;;;;38.73;21.46;100999.13;5588614;31;34622;-70
2022/09/05 13:44:45;;;;;;;6.43;2.05;;;;;;;41.25;18.02;100997.41;5588353;31;34534;-70
2022/09/05 13:48:14;;;;;;;3.58;2.10;;;;;;;37.87;21.22;101003.34;5587167;31;32602;-70
2022/09/05 13:51:42;;;;;;;2.90;2.00;;;;;;;36.40;22.92;101002.16;5588292;31;33971;-69
2022/09/05 13:55:03;;;;;;;3.80;2.05;;;;;;;37.66;21.71;101005.28;5586899;31;33620;-69
2022/09/05 13:58:11;;;;;;;4.87;2.22;;;;;;;35.04;24.71;100991.19;5588146;31;35249;-71
2022/09/05 14:01:25;;;;;;;4.05;2.15;;;;;;;31.11;30.84;100986.94;5589542;31;32631;-71
2022/09/05 14:04:44;;;;;;;3.47;2.10;;;;;;;29.42;33.74;100971.00;5576834;31;32411;-70
2022/09/05 14:08:41;;;;;;;3.53;2.00;;;;;;;30.82;31.50;100980.59;5590259;31;35171;-71
2022/09/05 14:12:28;;;;;;;5.75;2.30;;;;;;;32.86;28.68;100970.31;5589402;31;32488;-71
2022/09/05 14:15:47;;;;;;;4.30;2.25;;;;;;;34.45;26.27;100976.66;5576759;31;32844;-70
2022/09/05 14:22:35;;;;;;;8.93;2.22;;;;;;;29.63;34.03;100969.81;5590004;31;34069;-71
2022/09/05 14:25:43;;;;;;;4.18;2.03;;;;;;;29.10;35.06;100960.38;5589792;31;35086;-71
2022/09/05 14:29:01;;;;;;;4.93;2.28;;;;;;;28.73;35.13;100957.97;5563181;31;32669;-71
2022/09/05 14:32:19;;;;;;;2.45;2.25;;;;;;;28.12;37.77;100950.81;5589347;31;33841;-71
2022/09/05 14:36:06;;;;;;;5.22;2.00;;;;;;;27.82;38.44;100949.63;5590164;31;35208;-71
2022/09/05 14:39:29;;;;;;;6.95;3.72;;;;;;;28.08;39.25;100951.31;5578532;31;33225;-71
2022/09/05 14:43:01;;;;;;;8.07;2.55;;;;;;;28.08;39.84;100950.47;5590070;31;35214;-71
2022/09/05 14:46:20;;;;;;;4.80;2.62;;;;;;;27.82;40.98;100946.06;5576189;31;32760;-71
2022/09/05 14:49:33;;;;;;;8.25;2.00;;;;;;;27.29;39.31;100944.44;5575837;31;33689;-70
2022/09/05 14:52:36;;;;;;;6.12;2.47;;;;;;;27.65;38.99;100932.63;5589868;31;33830;-70
2022/09/05 14:56:05;;;;;;;3.78;2.60;;;;;;;27.35;40.21;100949.66;5589981;31;34669;-70
2022/09/05 14:59:36;;;;;;;5.22;2.20;;;;;;;27.29;37.77;100945.28;5578050;31;33714;-70
2022/09/05 15:03:00;;;;;;;7.35;2.55;;;;;;;27.01;40.36;100956.56;5578037;31;32339;-70
2022/09/05 15:06:20;;;;;;;5.87;2.30;;;;;;;27.22;41.74;100939.22;5589350;31;34013;-71
2022/09/05 15:09:35;;;;;;;3.10;2.47;;;;;;;27.32;41.43;100938.47;5577003;31;32592;-70
2022/09/05 15:13:15;;;;;;;4.70;2.60;;;;;;;27.40;42.20;100927.06;5588551;31;33005;-71
2022/09/05 15:16:22;;;;;;;2.83;1.98;;;;;;;27.54;40.21;100930.97;5589515;31;33985;-70
2022/09/05 15:19:47;;;;;;;5.68;2.30;;;;;;;27.07;39.95;100928.25;5588656;31;32414;-70
2022/09/05 15:23:27;;;;;;;3.92;2.45;;;;;;;27.25;41.43;100925.09;5589012;31;33159;-71
2022/09/05 15:26:31;;;;;;;4.28;1.80;;;;;;;27.40;39.32;100927.88;5588371;31;32590;-70
2022/09/05 15:29:35;;;;;;;2.90;1.75;;;;;;;27.06;38.49;100927.41;5588765;31;32272;-70
2022/09/05 15:32:42;;;;;;;4.97;2.10;;;;;;;26.81;39.41;100928.06;5589224;31;34623;-71
2022/09/05 15:35:50;;;;;;;5.07;2.50;;;;;;;26.92;38.81;100925.41;5589137;31;34245;-70
2022/09/05 15:38:53;;;;;;;11.57;2.62;;;;;;;26.74;42.13;100926.62;5588143;31;32803;-70
2022/09/05 15:42:22;;;;;;;4.28;2.12;;;;;;;26.73;42.82;100917.66;5588828;31;33292;-70
2022/09/05 15:45:36;;;;;;;4.40;2.35;;;;;;;26.34;41.20;100917.06;5589029;31;34464;-70
2022/09/05 15:48:39;;;;;;;4.30;1.95;;;;;;;26.23;43.44;100914.53;5589461;31;34281;-70
2022/09/05 15:51:48;;;;;;;5.37;2.30;;;;;;;26.12;41.45;100915.47;5588473;31;34583;-70
2022/09/05 15:55:16;;;;;;;5.35;2.20;;;;;;;25.96;41.66;100911.78;5587800;31;33772;-71
2022/09/05 15:58:19;;;;;;;4.65;2.00;;;;;;;26.13;44.16;100919.84;5587682;31;34563;-70
2022/09/05 16:01:29;;;;;;;11.10;2.55;;;;;;;25.99;43.68;100919.44;5589044;31;34101;-71
2022/09/05 16:05:14;;;;;;;4.47;2.12;;;;;;;26.02;43.53;100926.25;5588496;31;34260;-70
2022/09/05 16:08:47;;;;;;;8.23;2.80;;;;;;;25.96;42.72;100911.78;5588357;31;33526;-69
2022/09/05 16:12:12;;;;;;;14.02;2.80;;;;;;;25.95;43.47;100910.12;5589080;31;35206;-71
2022/09/05 16:15:24;;;;;;;7.90;2.08;;;;;;;25.96;45.27;100912.59;5587957;31;37115;-70
2022/09/05 16:18:52;;;;;;;4.93;2.80;;;;;;;25.73;43.73;100904.75;5588547;31;33978;-70
2022/09/05 16:22:33;;;;;;;10.18;2.40;;;;;;;25.74;45.84;100900.94;5587098;31;33617;-70
2022/09/05 16:26:21;;;;;;;3.10;2.22;;;;;;;25.66;46.46;100898.66;5577766;31;33398;-70
2022/09/05 16:29:31;;;;;;;7.90;2.72;;;;;;;25.35;46.63;100899.34;5589466;31;33849;-70
2022/09/05 16:32:38;;;;;;;5.72;2.97;;;;;;;25.30;46.95;100891.97;5589286;31;34554;-70
2022/09/05 16:36:02;;;;;;;4.53;2.30;;;;;;;25.20;47.39;100888.28;5589218;31;33947;-69
2022/09/05 16:39:11;;;;;;;4.65;2.35;;;;;;;25.09;44.20;100887.34;5589516;31;33859;-70
2022/09/05 16:42:32;;;;;;;5.32;2.37;;;;;;;24.66;46.96;100888.03;5574927;31;33053;-70
2022/09/05 16:45:51;;;;;;;8.70;2.70;;;;;;;24.24;48.21;100884.94;5589021;31;34734;-70
2022/09/05 16:48:58;;;;;;;7.45;2.37;;;;;;;24.04;49.63;100877.22;5589102;31;34548;-69
2022/09/05 16:52:06;;;;;;;2.97;2.30;;;;;;;23.83;49.82;100881.44;5587753;31;34866;-70
2022/09/05 16:55:18;;;;;;;5.20;2.53;;;;;;;23.68;50.68;100878.44;5588342;31;34311;-70
2022/09/05 16:58:59;;;;;;;4.53;2.87;;;;;;;23.51;53.51;100879.47;5588731;31;34022;-70
2022/09/05 17:02:08;;;;;;;7.97;2.80;;;;;;;23.26;53.04;100880.56;5574803;31;33544;-70
2022/09/05 17:05:20;;;;;;;4.80;2.90;;;;;;;23.07;54.10;100883.66;5589015;31;34606;-70
2022/09/05 17:08:25;;;;;;;6.97;3.33;;;;;;;22.90;53.75;100887.06;5589256;31;33930;-70
2022/09/05 17:11:32;;;;;;;6.95;3.70;;;;;;;22.75;53.33;100886.72;5588019;31;34432;-70
2022/09/05 17:14:42;;;;;;;7.57;3.75;;;;;;;22.60;53.90;100886.34;5588139;31;33662;-70
2022/09/05 17:17:56;;;;;;;4.35;3.05;;;;;;;22.45;54.83;100880.56;5589002;31;33886;-70
2022/09/05 17:21:24;;;;;;;6.57;3.75;;;;;;;22.27;54.63;100886.88;5588509;31;33897;-70
2022/09/05 17:24:55;;;;;;;11.18;3.37;;;;;;;22.10;56.56;100885.91;5588665;31;35080;-68
2022/09/05 17:28:59;;;;;;;7.82;3.58;;;;;;;21.97;58.47;100891.53;5588175;31;33461;-69
2022/09/05 17:32:26;;;;;;;13.65;3.70;;;;;;;21.83;58.60;100890.03;5588522;31;35021;-68
2022/09/05 17:35:41;;;;;;;8.80;3.90;;;;;;;21.69;57.77;100897.47;5588779;31;34188;-69
2022/09/05 17:39:13;;;;;;;8.05;3.42;;;;;;;21.59;58.40;100895.31;5588493;31;34216;-68
2022/09/05 17:42:44;;;;;;;6.57;3.62;;;;;;;21.51;57.57;100889.41;5588048;31;34137;-70
2022/09/05 17:45:49;;;;;;;10.73;3.87;;;;;;;21.41;58.95;100899.91;5588440;31;33833;-70
2022/09/05 17:48:58;;;;;;;6.82;3.50;;;;;;;21.29;62.25;100899.03;5574778;31;33618;-69
2022/09/05 17:52:22;;;;;;;5.45;3.42;;;;;;;21.17;61.74;100899.75;5588369;31;35217;-70
2022/09/05 17:55:47;;;;;;;14.07;3.97;;;;;;;21.07;63.42;100899.41;5588368;31;34693;-69
2022/09/05 17:59:01;;;;;;;13.00;4.00;;;;;;;21.00;63.72;100903.25;5579095;31;33877;-69
2022/09/05 18:02:04;;;;;;;10.50;3.92;;;;;;;20.94;64.68;100913.06;5587573;31;32602;-69